Time;durP1;ratioP1;P1;durP2;ratioP2;P2;SDS_P1;SDS_P2;PMS_P1;PMS_P2;Temp;Humidity;BMP_temperature;BMP_pressure;BME280_temperature;BME280_humidity;BME280_pressure;Samples;Min_cycle;Max_cycle;Signal;HPM_P1;HPM_P2
2021/05/05 00:00:42;;;;;;;4.53;2.10;;;;;;;16.62;36.85;99028.25;4459741;32;35702;-88
2021/05/05 00:03:09;;;;;;;5.32;2.10;;;;;;;16.63;36.78;99031.72;4472713;32;34076;-88
2021/05/05 00:05:38;;;;;;;3.85;2.50;;;;;;;16.69;36.82;99026.25;4459831;32;34715;-88
2021/05/05 00:08:05;;;;;;;3.75;2.17;;;;;;;16.60;36.77;99021.34;4472752;32;35055;-88
2021/05/05 00:10:32;;;;;;;2.83;1.73;;;;;;;16.52;37.26;99020.78;4446472;32;33290;-88
2021/05/05 00:12:59;;;;;;;2.45;2.05;;;;;;;16.49;37.11;99019.09;4460019;32;34160;-88
2021/05/05 00:15:26;;;;;;;2.47;1.83;;;;;;;16.48;37.11;99001.59;4446818;32;32858;-88
2021/05/05 00:17:54;;;;;;;3.78;2.08;;;;;;;16.47;37.10;98997.28;4459549;32;33746;-89
2021/05/05 00:20:22;;;;;;;4.62;1.92;;;;;;;16.45;37.41;99008.75;4472287;32;34007;-88
2021/05/05 00:22:50;;;;;;;7.32;2.58;;;;;;;16.43;37.52;98997.44;4459625;32;33910;-88
2021/05/05 00:25:19;;;;;;;7.82;2.80;;;;;;;16.36;37.63;98999.44;4459691;32;33425;-88
2021/05/05 00:27:46;;;;;;;6.12;2.10;;;;;;;16.37;37.40;99001.16;4459652;32;34188;-88
2021/05/05 00:30:14;;;;;;;3.30;1.83;;;;;;;16.45;37.43;98996.47;4446690;32;34046;-88
2021/05/05 00:32:41;;;;;;;4.45;2.00;;;;;;;16.25;37.89;98985.84;4459568;32;34771;-88
2021/05/05 00:35:09;;;;;;;2.62;2.03;;;;;;;16.42;37.63;98983.47;4459600;32;33606;-88
2021/05/05 00:37:36;;;;;;;3.70;2.20;;;;;;;16.34;37.55;98982.88;4472263;32;33855;-88
2021/05/05 00:40:05;;;;;;;3.10;2.05;;;;;;;16.38;37.63;98981.03;4459382;32;35042;-88
2021/05/05 00:42:32;;;;;;;3.80;2.20;;;;;;;16.27;37.67;98987.50;4472143;32;34400;-87
2021/05/05 00:45:01;;;;;;;4.45;2.30;;;;;;;16.36;37.45;98981.06;4472793;32;33591;-88
2021/05/05 00:47:28;;;;;;;5.18;2.40;;;;;;;16.29;37.53;98979.56;4472091;32;33894;-88
2021/05/05 00:49:57;;;;;;;5.90;2.22;;;;;;;16.10;38.18;98971.50;4459188;32;33813;-88
2021/05/05 00:52:24;;;;;;;4.37;2.30;;;;;;;16.28;37.76;98972.63;4480553;32;34052;-87
2021/05/05 00:54:53;;;;;;;7.03;2.30;;;;;;;16.11;38.03;98975.00;4473608;32;33433;-88
2021/05/05 00:57:21;;;;;;;4.07;2.30;;;;;;;16.12;38.25;98967.06;4459582;32;34999;-88
2021/05/05 00:59:49;;;;;;;3.45;2.08;;;;;;;16.21;38.09;98971.13;4446550;32;34215;-88
2021/05/05 01:02:17;;;;;;;4.43;1.83;;;;;;;16.10;38.30;98971.50;4446587;32;33383;-87
2021/05/05 01:04:45;;;;;;;4.65;1.80;;;;;;;16.05;38.13;98965.56;4459729;32;33309;-88
2021/05/05 01:07:13;;;;;;;3.35;1.77;;;;;;;16.06;38.02;98966.44;4433787;32;33596;-88
2021/05/05 01:09:45;;;;;;;7.45;2.03;;;;;;;16.11;38.20;98962.75;4459293;32;33803;-88
2021/05/05 01:12:14;;;;;;;3.97;1.90;;;;;;;16.11;37.92;98964.50;4446590;32;33050;-88
2021/05/05 01:14:42;;;;;;;3.62;1.55;;;;;;;16.11;37.93;98954.88;4446502;32;32804;-88
2021/05/05 01:17:09;;;;;;;3.03;1.92;;;;;;;15.98;38.20;98952.72;4446362;32;33455;-88
2021/05/05 01:19:37;;;;;;;4.97;2.08;;;;;;;15.90;38.25;98954.75;4459406;32;33988;-88
2021/05/05 01:22:05;;;;;;;5.87;2.12;;;;;;;15.96;38.64;98962.41;4458100;32;34060;-88
2021/05/05 01:24:34;;;;;;;4.15;2.03;;;;;;;15.89;38.53;98958.28;4446485;32;32837;-88
2021/05/05 01:27:04;;;;;;;7.12;2.05;;;;;;;15.86;39.39;98959.25;4446499;32;34176;-88
2021/05/05 01:29:32;;;;;;;5.37;1.85;;;;;;;15.82;39.24;98957.66;4458922;32;33832;-88
2021/05/05 01:32:00;;;;;;;3.25;1.80;;;;;;;15.71;39.38;98958.94;4459175;32;34059;-87
2021/05/05 01:34:28;;;;;;;3.37;2.12;;;;;;;15.80;39.36;98956.00;4458757;32;32938;-88
2021/05/05 01:36:56;;;;;;;4.32;1.87;;;;;;;15.89;38.77;98950.41;4472073;32;33777;-88
2021/05/05 01:39:23;;;;;;;5.68;2.28;;;;;;;15.79;38.98;98946.41;4459166;32;34421;-88
2021/05/05 01:41:50;;;;;;;5.22;2.55;;;;;;;15.81;38.89;98949.84;4471825;32;34634;-87
2021/05/05 01:44:39;;;;;;;5.53;2.20;;;;;;;15.74;39.38;98943.06;4459012;32;32630;-88
2021/05/05 01:47:10;;;;;;;5.97;1.80;;;;;;;15.72;39.53;98944.91;4472148;32;33774;-88
2021/05/05 01:49:46;;;;;;;4.25;2.00;;;;;;;15.64;39.50;98939.06;4459386;32;34728;-87
2021/05/05 01:52:15;;;;;;;2.75;1.83;;;;;;;15.76;39.14;98933.41;4446058;32;33582;-87
2021/05/05 01:54:43;;;;;;;4.97;1.90;;;;;;;15.57;39.35;98933.16;4458774;32;33329;-87
2021/05/05 01:57:39;;;;;;;4.95;2.22;;;;;;;15.42;40.15;98942.37;4446198;32;33973;-87
2021/05/05 02:00:28;;;;;;;5.43;1.90;;;;;;;15.50;40.07;98937.75;4440449;32;34895;-87
2021/05/05 02:02:56;;;;;;;6.60;2.00;;;;;;;15.45;39.96;98941.47;4458910;32;33942;-87
2021/05/05 02:05:24;;;;;;;3.65;1.77;;;;;;;15.45;40.32;98936.22;4471911;32;33313;-88
2021/05/05 02:07:52;;;;;;;5.90;2.00;;;;;;;15.38;40.41;98935.50;4485879;32;34599;-88
2021/05/05 02:10:20;;;;;;;5.47;2.35;;;;;;;15.32;40.66;98940.97;4458572;32;34363;-87
2021/05/05 02:12:48;;;;;;;3.10;1.77;;;;;;;15.34;40.91;98939.16;4458364;32;34665;-88
2021/05/05 02:15:21;;;;;;;4.68;1.90;;;;;;;15.24;41.14;98926.37;4446145;32;32908;-88
2021/05/05 02:17:51;;;;;;;3.80;1.80;;;;;;;15.24;41.04;98929.00;4445980;32;34434;-88
2021/05/05 02:20:24;;;;;;;4.40;1.92;;;;;;;15.20;41.01;98925.66;4458609;32;35745;-88
2021/05/05 02:22:53;;;;;;;6.30;2.10;;;;;;;15.17;41.76;98919.63;4463151;32;33384;-88
2021/05/05 02:25:20;;;;;;;3.92;1.55;;;;;;;15.16;42.04;98916.19;4445933;32;34046;-88
2021/05/05 02:27:50;;;;;;;3.67;2.05;;;;;;;14.87;42.56;98919.72;4471188;32;33875;-87
2021/05/05 02:30:18;;;;;;;3.12;2.10;;;;;;;14.98;42.83;98918.50;4471310;32;35739;-87
2021/05/05 02:32:48;;;;;;;4.00;2.20;;;;;;;15.00;42.92;98914.94;4458725;32;34631;-87
2021/05/05 02:35:15;;;;;;;4.82;2.83;;;;;;;14.79;42.93;98916.47;4460432;32;32967;-87
2021/05/05 02:37:44;;;;;;;6.10;2.40;;;;;;;14.80;43.13;98915.59;4473224;32;33807;-87
2021/05/05 02:40:14;;;;;;;4.60;2.58;;;;;;;14.67;43.35;98914.25;4460781;32;34299;-88
2021/05/05 02:42:42;;;;;;;5.97;2.33;;;;;;;14.55;43.63;98913.75;4460219;32;34027;-87
2021/05/05 02:45:09;;;;;;;3.90;2.00;;;;;;;14.52;43.66;98913.88;4447297;32;32843;-89
2021/05/05 02:47:37;;;;;;;2.90;2.20;;;;;;;14.57;43.77;98914.59;4460447;32;33801;-89
2021/05/05 02:50:06;;;;;;;5.53;2.20;;;;;;;14.44;43.76;98902.75;4460084;32;33848;-87
2021/05/05 02:52:33;;;;;;;3.12;2.37;;;;;;;14.37;43.73;98901.22;4459960;32;33364;-88
2021/05/05 02:55:02;;;;;;;4.32;2.30;;;;;;;14.51;43.79;98892.06;4460483;32;32178;-88
2021/05/05 02:57:31;;;;;;;3.37;2.10;;;;;;;14.44;44.21;98908.00;4473721;32;34669;-88
2021/05/05 02:59:58;;;;;;;4.93;1.87;;;;;;;14.24;44.71;98903.31;4447232;32;34864;-87
2021/05/05 03:02:26;;;;;;;6.07;2.30;;;;;;;14.35;44.67;98905.66;4460003;32;33629;-87
2021/05/05 03:04:54;;;;;;;6.22;2.17;;;;;;;14.21;44.99;98913.88;4460425;32;33424;-87
2021/05/05 03:07:23;;;;;;;3.83;2.15;;;;;;;14.13;45.10;98908.84;4460564;32;35080;-87
2021/05/05 03:09:54;;;;;;;2.75;2.37;;;;;;;13.95;45.93;98911.13;4460253;32;34331;-88
2021/05/05 03:12:22;;;;;;;5.37;2.45;;;;;;;14.00;45.94;98904.84;4487081;32;33998;-88
2021/05/05 03:14:49;;;;;;;3.45;2.45;;;;;;;13.98;45.92;98911.03;4459894;32;34315;-87
2021/05/05 03:17:16;;;;;;;4.95;2.45;;;;;;;13.90;46.02;98911.25;4473025;32;33791;-87
2021/05/05 03:19:44;;;;;;;6.50;2.85;;;;;;;13.95;45.96;98908.53;4447762;32;34028;-87
2021/05/05 03:22:12;;;;;;;3.97;2.40;;;;;;;13.80;46.28;98904.56;4459963;32;34698;-88
2021/05/05 03:24:39;;;;;;;5.70;2.80;;;;;;;13.95;45.88;98909.34;4460298;32;32755;-87
2021/05/05 03:27:06;;;;;;;6.65;2.47;;;;;;;13.88;45.86;98913.03;4460208;32;33858;-87
2021/05/05 03:29:33;;;;;;;6.10;2.55;;;;;;;13.84;46.05;98914.03;4447076;32;35399;-87
2021/05/05 03:32:00;;;;;;;8.25;2.85;;;;;;;13.76;46.46;98913.41;4473172;32;35168;-87
2021/05/05 03:34:28;;;;;;;5.57;2.97;;;;;;;13.69;46.65;98914.47;4447240;32;32973;-88
2021/05/05 03:36:55;;;;;;;5.53;2.72;;;;;;;13.67;47.05;98911.00;4472752;32;33801;-88
2021/05/05 03:39:22;;;;;;;4.57;2.70;;;;;;;13.70;46.82;98916.16;4459863;32;34636;-88
2021/05/05 03:41:50;;;;;;;4.72;2.72;;;;;;;13.65;47.08;98909.31;4459948;32;33916;-88
2021/05/05 03:44:17;;;;;;;4.87;2.72;;;;;;;13.59;47.22;98907.75;4446257;32;33659;-88
2021/05/05 03:46:44;;;;;;;5.05;2.53;;;;;;;13.67;47.62;98913.63;4446972;32;33262;-88
2021/05/05 03:49:12;;;;;;;5.78;2.70;;;;;;;13.64;47.88;98911.09;4460087;32;34395;-88
2021/05/05 03:51:40;;;;;;;3.33;2.55;;;;;;;13.54;47.85;98902.66;4474097;32;32870;-86
2021/05/05 03:54:07;;;;;;;4.18;2.70;;;;;;;13.64;47.89;98905.03;4447907;32;33772;-88
2021/05/05 03:56:34;;;;;;;3.97;2.47;;;;;;;13.47;48.20;98898.50;4472734;32;34073;-88
2021/05/05 03:59:02;;;;;;;3.37;2.40;;;;;;;13.48;48.34;98894.97;4459761;32;34761;-87
2021/05/05 04:01:29;;;;;;;5.53;2.67;;;;;;;13.51;48.44;98894.88;4459951;32;34335;-88
2021/05/05 04:03:56;;;;;;;4.47;2.78;;;;;;;13.48;48.97;98899.31;4459684;32;34768;-88
2021/05/05 04:06:24;;;;;;;4.28;3.10;;;;;;;13.57;48.78;98891.28;4459832;32;33935;-87
2021/05/05 04:08:51;;;;;;;4.45;3.03;;;;;;;13.56;48.69;98887.78;4460045;32;34516;-87
2021/05/05 04:11:19;;;;;;;10.10;3.87;;;;;;;13.63;48.73;98888.47;4472710;32;34279;-87
2021/05/05 04:13:47;;;;;;;4.47;3.12;;;;;;;13.53;48.88;98881.78;4472836;32;33409;-88
2021/05/05 04:16:33;;;;;;;6.20;3.08;;;;;;;13.67;49.14;98873.59;4461484;32;33340;-88
2021/05/05 04:19:18;;;;;;;5.32;3.33;;;;;;;13.77;49.03;98875.03;4458659;32;34707;-88
2021/05/05 04:22:04;;;;;;;6.18;2.87;;;;;;;13.79;49.14;98876.69;4448349;32;34325;-88
2021/05/05 04:24:50;;;;;;;7.03;3.10;;;;;;;13.84;49.31;98876.56;4458964;32;32689;-88
2021/05/05 04:27:18;;;;;;;7.72;3.47;;;;;;;13.87;49.27;98877.34;4469741;32;33773;-88
2021/05/05 04:29:45;;;;;;;7.60;3.87;;;;;;;13.99;49.09;98871.78;4457023;32;34403;-88
2021/05/05 04:32:13;;;;;;;6.18;3.53;;;;;;;13.97;49.22;98872.72;4456955;32;33810;-88
2021/05/05 04:34:42;;;;;;;6.55;3.78;;;;;;;13.97;49.07;98873.59;4456986;32;33352;-88
2021/05/05 04:37:10;;;;;;;4.90;3.53;;;;;;;13.96;49.13;98871.00;4457064;32;33671;-88
2021/05/05 04:39:38;;;;;;;4.90;3.65;;;;;;;13.92;48.90;98864.16;4444276;32;34704;-88
2021/05/05 04:42:07;;;;;;;7.70;4.25;;;;;;;13.92;49.08;98870.25;4456923;32;34825;-88
2021/05/05 04:44:34;;;;;;;12.35;4.45;;;;;;;13.86;49.36;98874.81;4444122;32;33882;-88
2021/05/05 04:47:02;;;;;;;9.40;4.72;;;;;;;13.92;48.92;98880.72;4457032;32;34102;-88
2021/05/05 04:49:29;;;;;;;8.82;4.62;;;;;;;13.98;49.13;98882.28;4469570;32;34475;-88
2021/05/05 04:51:57;;;;;;;10.10;4.68;;;;;;;14.04;48.94;98882.13;4469470;32;34268;-88
2021/05/05 04:54:24;;;;;;;12.13;4.45;;;;;;;14.03;49.12;98885.63;4443887;32;33023;-88
2021/05/05 04:56:52;;;;;;;8.48;4.43;;;;;;;14.14;48.98;98892.25;4469928;32;33879;-88
2021/05/05 04:59:20;;;;;;;10.88;5.05;;;;;;;14.17;48.91;98891.31;4456590;32;35353;-88
2021/05/05 05:01:47;;;;;;;10.02;5.20;;;;;;;14.13;49.43;98893.16;4444169;32;34099;-88
2021/05/05 05:04:14;;;;;;;11.68;5.00;;;;;;;14.28;48.57;98894.50;4456795;32;32957;-89
2021/05/05 05:06:41;;;;;;;11.30;5.22;;;;;;;14.33;48.11;98899.59;4456600;32;34459;-88
2021/05/05 05:09:08;;;;;;;8.27;4.85;;;;;;;14.22;48.63;98900.75;4456505;32;34010;-88
2021/05/05 05:11:36;;;;;;;9.45;4.50;;;;;;;14.37;47.97;98901.22;4456581;32;33953;-89
2021/05/05 05:14:03;;;;;;;11.27;4.62;;;;;;;14.45;48.05;98899.25;4456609;32;32813;-88
2021/05/05 05:16:32;;;;;;;7.93;4.53;;;;;;;14.26;48.50;98886.66;4469128;32;33783;-88
2021/05/05 05:18:59;;;;;;;8.90;4.40;;;;;;;14.40;48.41;98888.94;4456166;32;34505;-87
2021/05/05 05:21:26;;;;;;;10.52;4.68;;;;;;;14.61;47.80;98888.28;4457172;32;34714;-88
2021/05/05 05:23:55;;;;;;;15.70;5.10;;;;;;;14.97;46.70;98886.25;4449229;32;34542;-88
2021/05/05 05:26:22;;;;;;;6.93;4.10;;;;;;;15.02;46.63;98888.72;4442586;32;34407;-88
2021/05/05 05:28:49;;;;;;;9.60;4.40;;;;;;;15.16;46.42;98887.38;4448542;32;34697;-88
2021/05/05 05:31:16;;;;;;;8.35;3.87;;;;;;;15.24;46.24;98890.56;4448993;32;35520;-89
2021/05/05 05:33:44;;;;;;;5.87;3.58;;;;;;;15.41;46.52;98897.88;4463836;32;33565;-89
2021/05/05 05:36:11;;;;;;;5.45;3.15;;;;;;;15.69;45.79;98898.66;4455631;32;33726;-89
2021/05/05 05:38:39;;;;;;;3.87;2.62;;;;;;;15.86;44.92;98892.81;4443081;32;34047;-88
2021/05/05 05:41:06;;;;;;;7.80;3.30;;;;;;;15.92;45.18;98898.72;4446635;32;33797;-86
2021/05/05 05:43:33;;;;;;;5.53;2.83;;;;;;;15.96;45.22;98900.31;4461079;32;33618;-87
2021/05/05 05:46:00;;;;;;;5.60;3.10;;;;;;;15.57;46.39;98899.94;4468032;32;35137;-87
2021/05/05 05:48:28;;;;;;;7.50;2.70;;;;;;;15.79;46.45;98892.19;4467473;32;34380;-87
2021/05/05 05:50:56;;;;;;;5.37;2.80;;;;;;;16.15;45.08;98887.41;4467724;32;35227;-88
2021/05/05 05:53:23;;;;;;;8.57;3.30;;;;;;;16.09;45.13;98887.63;4468776;32;33692;-87
2021/05/05 05:55:51;;;;;;;4.95;2.47;;;;;;;16.48;44.34;98880.87;4455857;32;34561;-88
2021/05/05 05:58:18;;;;;;;5.43;2.87;;;;;;;16.67;44.04;98886.28;4456058;32;34670;-88
2021/05/05 06:00:45;;;;;;;5.68;2.90;;;;;;;16.62;43.95;98889.09;4455787;32;34301;-89
2021/05/05 06:03:13;;;;;;;6.80;2.87;;;;;;;16.93;43.25;98894.88;4470025;32;34616;-89
2021/05/05 06:05:40;;;;;;;6.30;3.03;;;;;;;17.01;43.43;98891.06;4443135;32;34383;-88
2021/05/05 06:08:07;;;;;;;6.00;2.67;;;;;;;16.92;44.83;98897.56;4456568;32;34510;-88
2021/05/05 06:10:35;;;;;;;6.65;2.75;;;;;;;17.25;44.09;98890.06;4458044;32;33991;-88
2021/05/05 06:13:04;;;;;;;7.47;2.97;;;;;;;17.39;43.86;98890.34;4471940;32;33254;-88
2021/05/05 06:15:31;;;;;;;7.18;2.80;;;;;;;17.82;42.25;98890.28;4457912;32;33277;-88
2021/05/05 06:17:58;;;;;;;5.07;2.50;;;;;;;17.68;44.82;98886.53;4459756;32;34949;-89
2021/05/05 06:20:25;;;;;;;8.40;2.70;;;;;;;17.69;43.01;98881.19;4448003;32;33092;-89
2021/05/05 06:22:52;;;;;;;8.55;3.20;;;;;;;17.92;42.35;98874.94;4473416;32;33501;-89
2021/05/05 06:25:21;;;;;;;7.80;3.00;;;;;;;18.06;42.32;98873.41;4460447;32;34118;-89
2021/05/05 06:27:48;;;;;;;5.97;3.00;;;;;;;17.85;44.26;98869.06;4447804;32;34102;-88
2021/05/05 06:30:16;;;;;;;7.12;2.50;;;;;;;18.49;41.57;98868.84;4447908;32;33484;-89
2021/05/05 06:32:43;;;;;;;9.52;3.30;;;;;;;18.63;41.70;98863.78;4447866;32;33260;-90
2021/05/05 06:35:11;;;;;;;5.57;3.10;;;;;;;18.61;43.09;98861.19;4473269;32;33773;-89
2021/05/05 06:37:39;;;;;;;6.00;2.78;;;;;;;18.89;41.37;98855.47;4447500;32;35005;-88
2021/05/05 06:40:07;;;;;;;9.15;2.78;;;;;;;18.77;41.60;98850.78;4447783;32;32641;-89
2021/05/05 06:42:35;;;;;;;9.48;3.03;;;;;;;18.65;42.23;98846.97;4460664;32;33593;-88
2021/05/05 06:45:04;;;;;;;4.80;2.83;;;;;;;18.69;42.19;98840.63;4460147;32;33579;-89
2021/05/05 06:47:33;;;;;;;6.87;2.85;;;;;;;19.05;42.43;98840.63;4447088;32;34035;-89
2021/05/05 06:50:00;;;;;;;5.82;2.85;;;;;;;19.58;39.92;98846.72;4447838;32;33518;-88
2021/05/05 06:52:27;;;;;;;10.75;3.00;;;;;;;19.59;39.58;98842.28;4456314;32;34904;-88
2021/05/05 06:54:55;;;;;;;4.57;2.95;;;;;;;19.77;39.11;98853.66;4444528;32;34155;-86
2021/05/05 06:57:22;;;;;;;10.45;3.65;;;;;;;19.64;40.79;98842.87;4446625;32;35519;-88
2021/05/05 06:59:50;;;;;;;8.63;2.80;;;;;;;19.62;40.87;98838.62;4451507;32;34695;-88
2021/05/05 07:02:17;;;;;;;5.22;2.83;;;;;;;19.92;39.42;98845.78;4434114;32;34656;-89
2021/05/05 07:04:47;;;;;;;7.12;2.97;;;;;;;20.04;38.63;98846.94;4442164;32;34450;-89
2021/05/05 07:07:14;;;;;;;5.00;2.97;;;;;;;20.10;39.52;98841.31;4454115;32;34333;-88
2021/05/05 07:09:41;;;;;;;4.55;2.42;;;;;;;20.16;38.85;98835.69;4444227;32;34131;-86
2021/05/05 07:12:14;;;;;;;4.85;2.47;;;;;;;20.40;38.72;98834.41;4459353;32;33346;-88
2021/05/05 07:14:43;;;;;;;11.27;2.80;;;;;;;20.53;38.50;98845.16;4465514;32;35304;-87
2021/05/05 07:17:10;;;;;;;7.55;3.10;;;;;;;20.67;37.48;98843.44;4457320;32;34618;-88
2021/05/05 07:19:39;;;;;;;7.07;2.67;;;;;;;20.71;38.15;98844.13;4427889;32;33502;-88
2021/05/05 07:22:06;;;;;;;6.68;2.67;;;;;;;20.64;38.03;98842.75;4425383;32;33206;-89
2021/05/05 07:24:33;;;;;;;5.35;2.42;;;;;;;20.73;37.97;98835.16;4429097;32;33564;-87
2021/05/05 07:27:01;;;;;;;6.82;2.62;;;;;;;20.84;37.75;98824.84;4454419;32;34441;-87
2021/05/05 07:29:28;;;;;;;7.07;2.67;;;;;;;20.89;37.49;98824.59;4440408;32;33406;-88
2021/05/05 07:31:55;;;;;;;5.97;2.35;;;;;;;20.94;37.79;98825.19;4465817;32;33410;-87
2021/05/05 07:34:24;;;;;;;7.32;2.83;;;;;;;21.16;37.21;98825.66;4459552;32;33831;-88
2021/05/05 07:36:54;;;;;;;5.45;2.92;;;;;;;21.11;37.74;98826.91;4451989;32;34252;-87
2021/05/05 07:47:05;;;;;;;5.68;2.95;;;;;;;21.24;36.86;98828.72;4456465;32;34258;-87
2021/05/05 07:49:41;;;;;;;5.78;2.28;;;;;;;21.36;37.42;98821.84;4450737;32;33845;-87
2021/05/05 07:52:08;;;;;;;4.70;2.87;;;;;;;21.67;36.51;98819.09;4459130;32;32642;-87
2021/05/05 07:54:36;;;;;;;6.45;2.70;;;;;;;21.65;35.86;98812.19;4458773;32;34592;-88
2021/05/05 07:57:03;;;;;;;6.12;2.25;;;;;;;21.37;36.35;98808.53;4447592;32;35338;-87
2021/05/05 07:59:30;;;;;;;6.03;2.67;;;;;;;21.48;36.69;98811.41;4442912;32;34522;-87
2021/05/05 08:01:58;;;;;;;5.53;2.55;;;;;;;21.73;36.53;98813.41;4461662;32;33836;-87
2021/05/05 08:04:26;;;;;;;4.65;2.35;;;;;;;21.72;36.37;98824.94;4450181;32;34205;-88
2021/05/05 08:06:53;;;;;;;5.15;2.90;;;;;;;21.60;35.94;98812.47;4449759;32;34092;-88
2021/05/05 08:09:22;;;;;;;3.25;2.35;;;;;;;21.61;36.58;98800.91;4450046;32;33078;-90
2021/05/05 08:11:49;;;;;;;4.28;2.33;;;;;;;21.72;36.65;98802.94;4470615;32;33390;-88
2021/05/05 08:14:17;;;;;;;9.00;2.78;;;;;;;21.86;35.29;98798.53;4440975;32;34428;-88
2021/05/05 08:16:45;;;;;;;6.87;3.42;;;;;;;22.00;35.61;98798.53;4450206;32;34602;-89
2021/05/05 08:19:14;;;;;;;6.90;3.25;;;;;;;21.20;37.26;98810.47;4441974;32;33569;-89
2021/05/05 08:21:41;;;;;;;7.32;3.12;;;;;;;21.41;37.22;98796.00;4488381;32;34093;-88
2021/05/05 08:24:09;;;;;;;5.07;2.58;;;;;;;21.31;37.83;98782.47;4442866;32;33939;-89
2021/05/05 08:26:37;;;;;;;5.00;2.85;;;;;;;21.61;37.16;98789.50;4429078;32;34277;-90
2021/05/05 08:29:04;;;;;;;5.35;2.85;;;;;;;21.60;36.49;98788.66;4424463;32;33284;-85
2021/05/05 08:31:31;;;;;;;12.68;3.42;;;;;;;21.84;36.50;98776.59;4446722;32;33327;-91
2021/05/05 08:33:59;;;;;;;8.77;2.80;;;;;;;21.97;38.14;98772.22;4436488;32;33171;-90
2021/05/05 08:36:26;;;;;;;4.93;2.75;;;;;;;22.07;35.91;98770.72;4428515;32;34734;-89
2021/05/05 08:39:07;;;;;;;8.60;2.90;;;;;;;21.97;36.98;98763.44;4436526;32;33550;-89
2021/05/05 08:41:37;;;;;;;5.68;2.75;;;;;;;22.02;36.08;98754.25;4458910;32;34615;-89
2021/05/05 08:44:11;;;;;;;8.20;2.50;;;;;;;22.21;35.66;98757.44;4431038;32;33112;-89
2021/05/05 08:46:41;;;;;;;8.85;2.22;;;;;;;22.02;36.24;98756.06;4443195;32;35304;-89
2021/05/05 08:49:09;;;;;;;6.20;2.67;;;;;;;22.18;37.03;98752.34;4440416;32;35247;-90
2021/05/05 08:51:37;;;;;;;4.90;2.35;;;;;;;22.47;35.74;98749.59;4471800;32;33322;-89
2021/05/05 08:54:07;;;;;;;8.35;2.67;;;;;;;22.49;35.64;98753.88;4443522;32;34344;-89
2021/05/05 08:56:35;;;;;;;7.43;2.45;;;;;;;22.11;36.30;98763.41;4456677;32;34684;-89
2021/05/05 08:59:11;;;;;;;7.62;2.60;;;;;;;22.27;36.13;98754.41;4452063;32;33997;-90
2021/05/05 09:01:40;;;;;;;7.50;2.97;;;;;;;22.19;35.85;98751.41;4442151;32;34443;-89
2021/05/05 09:04:08;;;;;;;5.18;2.37;;;;;;;22.25;36.37;98751.00;4454645;32;33591;-89
2021/05/05 09:06:49;;;;;;;5.05;2.05;;;;;;;22.07;36.05;98751.31;4446727;32;33866;-88
2021/05/05 09:09:38;;;;;;;5.97;2.08;;;;;;;22.43;35.41;98742.81;4435428;32;34509;-90
2021/05/05 09:12:24;;;;;;;9.80;2.40;;;;;;;22.62;34.74;98743.34;4461890;32;33336;-90
2021/05/05 09:14:58;;;;;;;5.97;2.20;;;;;;;22.55;36.33;98736.72;4438479;32;34728;-89
2021/05/05 09:17:31;;;;;;;6.43;2.10;;;;;;;22.90;34.53;98732.62;4448096;32;34874;-89
2021/05/05 09:20:05;;;;;;;7.50;2.10;;;;;;;22.96;34.22;98732.22;4458441;32;33513;-90
2021/05/05 09:22:37;;;;;;;5.78;2.05;;;;;;;23.12;34.47;98730.25;4450429;32;32692;-89
2021/05/05 09:25:10;;;;;;;6.70;2.10;;;;;;;23.04;33.85;98721.94;4450903;32;33382;-90
2021/05/05 09:27:38;;;;;;;4.75;1.80;;;;;;;23.09;33.92;98722.47;4439318;32;33341;-89
2021/05/05 09:30:21;;;;;;;8.48;2.42;;;;;;;23.10;34.10;98728.63;4445911;32;33010;-90
2021/05/05 09:32:52;;;;;;;5.10;2.12;;;;;;;22.87;34.76;98719.56;4449881;32;32766;-89
2021/05/05 09:35:35;;;;;;;5.05;2.05;;;;;;;23.27;34.00;98721.22;4434652;32;33325;-91
2021/05/05 09:38:08;;;;;;;4.80;2.03;;;;;;;23.32;33.48;98720.94;4444993;32;33832;-90
2021/05/05 09:40:53;;;;;;;5.97;2.03;;;;;;;23.61;33.13;98708.28;4457903;32;34015;-90
2021/05/05 09:43:20;;;;;;;6.87;2.40;;;;;;;23.51;33.77;98705.44;4441080;32;33947;-90
2021/05/05 09:45:47;;;;;;;9.32;2.12;;;;;;;23.64;33.37;98708.09;4451755;32;34675;-90
2021/05/05 09:48:22;;;;;;;6.75;2.08;;;;;;;23.35;33.52;98704.81;4445420;32;34795;-91
2021/05/05 09:50:58;;;;;;;6.22;2.28;;;;;;;23.69;32.51;98690.87;4445265;32;33374;-90
2021/05/05 09:53:33;;;;;;;6.45;3.12;;;;;;;23.91;32.39;98687.56;4473086;32;34861;-90
2021/05/05 09:56:04;;;;;;;7.20;3.25;;;;;;;23.84;31.95;98681.00;4448127;32;34776;-90
2021/05/05 09:58:35;;;;;;;5.70;2.37;;;;;;;23.53;32.96;98680.47;4436428;32;33831;-90
2021/05/05 10:01:03;;;;;;;4.57;1.87;;;;;;;23.74;32.09;98683.44;4444871;32;34573;-90
2021/05/05 10:03:42;;;;;;;6.78;3.25;;;;;;;23.47;33.41;98685.38;4457843;32;32911;-89
2021/05/05 10:06:23;;;;;;;6.20;2.55;;;;;;;23.43;33.82;98666.19;4443549;32;33474;-90
2021/05/05 10:09:05;;;;;;;11.12;2.37;;;;;;;23.55;32.19;98665.34;4462235;32;34177;-91
2021/05/05 10:11:35;;;;;;;3.20;1.80;;;;;;;23.67;31.26;98658.31;4449316;32;34660;-90
2021/05/05 10:14:27;;;;;;;7.60;3.30;;;;;;;23.60;31.24;98665.00;4434431;32;32691;-89
2021/05/05 10:17:09;;;;;;;8.38;2.87;;;;;;;23.20;32.33;98666.87;4451172;32;33765;-90
2021/05/05 10:19:39;;;;;;;6.37;2.70;;;;;;;23.41;31.93;98667.25;4445281;32;35346;-90
2021/05/05 10:22:06;;;;;;;5.82;1.98;;;;;;;23.44;32.49;98669.66;4451622;32;33862;-88
2021/05/05 10:24:42;;;;;;;26.87;2.25;;;;;;;23.60;32.76;98661.50;4442942;32;33395;-88
2021/05/05 10:27:12;;;;;;;4.57;1.83;;;;;;;23.16;33.54;98654.81;4458695;32;34515;-89
2021/05/05 10:29:41;;;;;;;7.57;2.22;;;;;;;23.30;32.76;98660.00;4451392;32;33955;-89
2021/05/05 10:35:00;;;;;;;7.20;1.80;;;;;;;23.68;32.25;98656.50;4444847;32;32502;-90
2021/05/05 10:37:42;;;;;;;4.30;1.80;;;;;;;23.87;32.14;98651.53;4461488;32;33739;-88
2021/05/05 10:40:32;;;;;;;7.68;1.65;;;;;;;23.91;32.29;98659.19;4439953;32;34629;-90
2021/05/05 10:43:48;;;;;;;5.03;1.58;;;;;;;23.79;32.66;98667.19;4452526;32;33429;-90
2021/05/05 10:46:27;;;;;;;7.12;2.12;;;;;;;24.12;31.68;98655.03;4451524;32;33436;-90
2021/05/05 10:49:17;;;;;;;5.12;1.83;;;;;;;24.35;31.31;98642.69;4454984;32;34411;-90
2021/05/05 10:51:45;;;;;;;8.27;2.37;;;;;;;24.33;30.82;98639.28;4451555;32;34491;-90
2021/05/05 10:54:13;;;;;;;4.55;1.75;;;;;;;24.04;32.31;98649.38;4449600;32;35324;-90
2021/05/05 10:56:44;;;;;;;4.00;1.70;;;;;;;24.21;31.86;98646.38;4435514;32;32707;-88
2021/05/05 10:59:16;;;;;;;8.15;1.90;;;;;;;24.20;31.55;98638.50;4463508;32;34870;-90
2021/05/05 11:01:59;;;;;;;5.07;1.77;;;;;;;24.40;31.93;98629.91;4464808;32;34263;-90
2021/05/05 11:05:07;;;;;;;5.55;2.05;;;;;;;24.17;33.04;98633.44;4450237;32;35003;-89
2021/05/05 11:07:49;;;;;;;5.20;2.35;;;;;;;24.46;30.78;98631.25;4463059;32;33385;-90
2021/05/05 11:10:40;;;;;;;4.62;1.98;;;;;;;24.63;31.95;98636.13;4440649;32;36155;-89
2021/05/05 11:13:20;;;;;;;3.10;1.62;;;;;;;24.80;31.65;98622.44;4453567;32;34020;-89
2021/05/05 11:15:47;;;;;;;7.68;2.40;;;;;;;24.66;31.49;98614.66;4478537;32;35276;-89
2021/05/05 11:18:27;;;;;;;3.95;2.05;;;;;;;24.72;31.96;98619.50;4464335;32;34100;-89
2021/05/05 11:21:07;;;;;;;6.80;1.83;;;;;;;24.79;30.22;98608.28;4468973;32;33886;-81
2021/05/05 11:26:32;;;;;;;3.50;1.73;;;;;;;24.54;31.14;98608.44;4482297;32;33900;-81
2021/05/05 11:29:10;;;;;;;5.82;1.85;;;;;;;24.63;31.70;98609.56;4463066;32;32869;-81
2021/05/05 11:34:23;;;;;;;13.25;3.12;;;;;;;24.63;30.00;98610.41;4470932;32;33775;-84
2021/05/05 11:37:22;;;;;;;5.18;2.03;;;;;;;24.75;29.25;98604.16;4486074;32;34250;-84
2021/05/05 11:39:58;;;;;;;5.30;2.15;;;;;;;24.87;29.73;98597.06;4471156;32;33643;-83
2021/05/05 11:42:33;;;;;;;4.00;1.60;;;;;;;24.72;30.12;98592.94;4457787;32;33850;-85
2021/05/05 11:45:11;;;;;;;4.97;1.92;;;;;;;24.88;31.01;98582.81;4458251;32;34373;-84
2021/05/05 11:47:42;;;;;;;6.78;2.12;;;;;;;24.96;30.16;98598.19;4438501;32;35178;-83
2021/05/05 11:50:12;;;;;;;6.15;2.03;;;;;;;25.18;28.63;98595.53;4444089;32;34103;-84
2021/05/05 11:52:48;;;;;;;4.22;2.05;;;;;;;25.11;29.18;98575.69;4473642;32;33697;-84
2021/05/05 11:55:16;;;;;;;4.75;1.45;;;;;;;25.08;30.14;98579.44;4465339;32;34779;-84
2021/05/05 11:57:48;;;;;;;2.12;1.50;;;;;;;25.53;28.99;98580.34;4477009;32;34788;-84
2021/05/05 12:00:25;;;;;;;5.35;1.60;;;;;;;25.55;28.89;98573.06;4449744;32;33289;-81
2021/05/05 12:02:54;;;;;;;4.40;1.65;;;;;;;25.42;30.06;98567.00;4467423;32;35184;-84
2021/05/05 12:05:30;;;;;;;4.53;1.75;;;;;;;25.45;29.07;98569.44;4463736;32;34589;-83